sensor_id;sensor_type;location;lat;lon;timestamp;P1;durP1;ratioP1;P2;durP2;ratioP2
79585;SDS011;69054;50.866;4.636;2023-07-13T00:00:27;5.18;;;2.90;;
79585;SDS011;69054;50.866;4.636;2023-07-13T00:02:53;6.82;;;2.50;;
79585;SDS011;69054;50.866;4.636;2023-07-13T00:05:19;8.95;;;2.72;;
79585;SDS011;69054;50.866;4.636;2023-07-13T00:07:45;5.32;;;2.55;;
79585;SDS011;69054;50.866;4.636;2023-07-13T00:10:11;5.43;;;2.65;;
79585;SDS011;69054;50.866;4.636;2023-07-13T00:12:37;5.72;;;2.88;;
79585;SDS011;69054;50.866;4.636;2023-07-13T00:15:04;6.03;;;2.30;;
79585;SDS011;69054;50.866;4.636;2023-07-13T00:17:32;7.35;;;2.58;;
79585;SDS011;69054;50.866;4.636;2023-07-13T00:19:58;5.32;;;2.50;;
79585;SDS011;69054;50.866;4.636;2023-07-13T00:22:24;4.32;;;2.50;;
79585;SDS011;69054;50.866;4.636;2023-07-13T00:24:51;5.93;;;2.70;;
79585;SDS011;69054;50.866;4.636;2023-07-13T00:27:21;7.32;;;2.60;;
79585;SDS011;69054;50.866;4.636;2023-07-13T00:29:47;5.40;;;3.00;;
79585;SDS011;69054;50.866;4.636;2023-07-13T00:32:12;5.80;;;2.90;;
79585;SDS011;69054;50.866;4.636;2023-07-13T00:34:38;5.55;;;2.75;;
79585;SDS011;69054;50.866;4.636;2023-07-13T00:37:04;6.93;;;3.25;;
79585;SDS011;69054;50.866;4.636;2023-07-13T00:39:31;7.45;;;3.00;;
79585;SDS011;69054;50.866;4.636;2023-07-13T00:41:57;6.18;;;3.03;;
79585;SDS011;69054;50.866;4.636;2023-07-13T00:44:23;9.02;;;2.83;;
79585;SDS011;69054;50.866;4.636;2023-07-13T00:46:48;8.95;;;2.80;;
79585;SDS011;69054;50.866;4.636;2023-07-13T00:49:15;7.15;;;2.92;;
79585;SDS011;69054;50.866;4.636;2023-07-13T00:51:49;9.50;;;3.13;;
79585;SDS011;69054;50.866;4.636;2023-07-13T00:54:23;5.88;;;2.72;;
79585;SDS011;69054;50.866;4.636;2023-07-13T00:56:52;6.88;;;2.90;;
79585;SDS011;69054;50.866;4.636;2023-07-13T00:59:20;5.85;;;2.92;;
79585;SDS011;69054;50.866;4.636;2023-07-13T01:01:47;8.70;;;3.10;;
79585;SDS011;69054;50.866;4.636;2023-07-13T01:04:13;5.80;;;2.88;;
79585;SDS011;69054;50.866;4.636;2023-07-13T01:06:40;9.65;;;2.90;;
79585;SDS011;69054;50.866;4.636;2023-07-13T01:09:08;9.13;;;2.95;;
79585;SDS011;69054;50.866;4.636;2023-07-13T01:11:35;6.07;;;2.88;;
79585;SDS011;69054;50.866;4.636;2023-07-13T01:14:01;7.57;;;3.00;;
79585;SDS011;69054;50.866;4.636;2023-07-13T01:16:32;8.15;;;2.80;;
79585;SDS011;69054;50.866;4.636;2023-07-13T01:18:59;8.90;;;3.13;;
79585;SDS011;69054;50.866;4.636;2023-07-13T01:21:29;6.00;;;2.95;;
79585;SDS011;69054;50.866;4.636;2023-07-13T01:23:58;9.38;;;4.03;;
79585;SDS011;69054;50.866;4.636;2023-07-13T01:26:23;8.50;;;3.10;;
79585;SDS011;69054;50.866;4.636;2023-07-13T01:28:48;10.07;;;4.03;;
79585;SDS011;69054;50.866;4.636;2023-07-13T01:31:14;8.38;;;3.05;;
79585;SDS011;69054;50.866;4.636;2023-07-13T01:33:39;7.05;;;3.38;;
79585;SDS011;69054;50.866;4.636;2023-07-13T01:36:08;7.45;;;4.15;;
79585;SDS011;69054;50.866;4.636;2023-07-13T01:38:35;7.57;;;3.58;;
79585;SDS011;69054;50.866;4.636;2023-07-13T01:41:02;9.63;;;3.97;;
79585;SDS011;69054;50.866;4.636;2023-07-13T01:43:28;11.48;;;3.88;;
79585;SDS011;69054;50.866;4.636;2023-07-13T01:45:54;11.07;;;3.70;;
79585;SDS011;69054;50.866;4.636;2023-07-13T01:48:19;7.45;;;3.35;;
79585;SDS011;69054;50.866;4.636;2023-07-13T01:50:45;9.00;;;3.75;;
79585;SDS011;69054;50.866;4.636;2023-07-13T01:53:12;7.40;;;4.15;;
79585;SDS011;69054;50.866;4.636;2023-07-13T01:55:37;9.02;;;3.55;;
79585;SDS011;69054;50.866;4.636;2023-07-13T01:58:03;7.68;;;4.32;;
79585;SDS011;69054;50.866;4.636;2023-07-13T02:00:29;10.75;;;4.25;;
79585;SDS011;69054;50.866;4.636;2023-07-13T02:02:54;9.38;;;3.78;;
79585;SDS011;69054;50.866;4.636;2023-07-13T02:05:20;7.55;;;3.55;;
79585;SDS011;69054;50.866;4.636;2023-07-13T02:07:45;8.52;;;3.47;;
79585;SDS011;69054;50.866;4.636;2023-07-13T02:10:11;10.05;;;4.03;;
79585;SDS011;69054;50.866;4.636;2023-07-13T02:12:37;6.88;;;3.40;;
79585;SDS011;69054;50.866;4.636;2023-07-13T02:15:04;8.52;;;4.53;;
79585;SDS011;69054;50.866;4.636;2023-07-13T02:17:30;5.13;;;3.17;;
79585;SDS011;69054;50.866;4.636;2023-07-13T02:19:56;8.77;;;3.83;;
79585;SDS011;69054;50.866;4.636;2023-07-13T02:22:21;9.35;;;3.75;;
79585;SDS011;69054;50.866;4.636;2023-07-13T02:24:47;8.57;;;3.15;;
79585;SDS011;69054;50.866;4.636;2023-07-13T02:27:13;8.18;;;4.03;;
79585;SDS011;69054;50.866;4.636;2023-07-13T02:29:39;7.35;;;3.50;;
79585;SDS011;69054;50.866;4.636;2023-07-13T02:32:04;11.77;;;3.53;;
79585;SDS011;69054;50.866;4.636;2023-07-13T02:34:30;10.25;;;3.70;;
79585;SDS011;69054;50.866;4.636;2023-07-13T02:36:56;12.13;;;4.82;;
79585;SDS011;69054;50.866;4.636;2023-07-13T02:39:21;9.75;;;3.72;;
79585;SDS011;69054;50.866;4.636;2023-07-13T02:41:46;8.70;;;3.47;;
79585;SDS011;69054;50.866;4.636;2023-07-13T02:44:12;8.23;;;3.75;;
79585;SDS011;69054;50.866;4.636;2023-07-13T02:46:39;8.07;;;3.88;;
79585;SDS011;69054;50.866;4.636;2023-07-13T02:49:04;7.50;;;3.50;;
79585;SDS011;69054;50.866;4.636;2023-07-13T02:51:30;8.70;;;3.53;;
79585;SDS011;69054;50.866;4.636;2023-07-13T02:53:59;8.00;;;3.85;;
79585;SDS011;69054;50.866;4.636;2023-07-13T02:56:25;7.35;;;4.15;;
79585;SDS011;69054;50.866;4.636;2023-07-13T02:58:52;11.45;;;4.00;;
79585;SDS011;69054;50.866;4.636;2023-07-13T03:01:19;10.68;;;3.85;;
79585;SDS011;69054;50.866;4.636;2023-07-13T03:03:46;11.52;;;3.92;;
79585;SDS011;69054;50.866;4.636;2023-07-13T03:06:11;10.27;;;3.72;;
79585;SDS011;69054;50.866;4.636;2023-07-13T03:08:37;9.07;;;4.45;;
79585;SDS011;69054;50.866;4.636;2023-07-13T03:11:03;11.13;;;3.97;;
79585;SDS011;69054;50.866;4.636;2023-07-13T03:13:30;9.65;;;4.63;;
79585;SDS011;69054;50.866;4.636;2023-07-13T03:15:56;7.80;;;3.50;;
79585;SDS011;69054;50.866;4.636;2023-07-13T03:18:22;10.52;;;4.13;;
79585;SDS011;69054;50.866;4.636;2023-07-13T03:20:50;8.93;;;3.58;;
79585;SDS011;69054;50.866;4.636;2023-07-13T03:23:16;6.28;;;3.65;;
79585;SDS011;69054;50.866;4.636;2023-07-13T03:25:42;10.05;;;4.32;;
79585;SDS011;69054;50.866;4.636;2023-07-13T03:28:07;10.57;;;4.10;;
79585;SDS011;69054;50.866;4.636;2023-07-13T03:30:33;11.27;;;4.70;;
79585;SDS011;69054;50.866;4.636;2023-07-13T03:32:58;12.60;;;4.32;;
79585;SDS011;69054;50.866;4.636;2023-07-13T03:35:24;8.13;;;3.80;;
79585;SDS011;69054;50.866;4.636;2023-07-13T03:37:49;9.13;;;3.63;;
79585;SDS011;69054;50.866;4.636;2023-07-13T03:40:16;9.68;;;4.00;;
79585;SDS011;69054;50.866;4.636;2023-07-13T03:42:41;11.85;;;4.90;;
79585;SDS011;69054;50.866;4.636;2023-07-13T03:45:07;9.77;;;3.75;;
79585;SDS011;69054;50.866;4.636;2023-07-13T03:47:33;10.18;;;3.80;;
79585;SDS011;69054;50.866;4.636;2023-07-13T03:49:58;8.60;;;4.00;;
79585;SDS011;69054;50.866;4.636;2023-07-13T03:52:24;14.52;;;4.10;;
79585;SDS011;69054;50.866;4.636;2023-07-13T03:54:49;13.70;;;4.97;;
79585;SDS011;69054;50.866;4.636;2023-07-13T03:57:14;9.13;;;3.63;;
79585;SDS011;69054;50.866;4.636;2023-07-13T03:59:40;8.27;;;3.70;;
79585;SDS011;69054;50.866;4.636;2023-07-13T04:02:05;7.45;;;3.72;;
79585;SDS011;69054;50.866;4.636;2023-07-13T04:04:31;9.20;;;3.70;;
79585;SDS011;69054;50.866;4.636;2023-07-13T04:06:59;6.85;;;3.35;;
79585;SDS011;69054;50.866;4.636;2023-07-13T04:09:24;9.02;;;3.70;;
79585;SDS011;69054;50.866;4.636;2023-07-13T04:11:50;6.35;;;3.28;;
79585;SDS011;69054;50.866;4.636;2023-07-13T04:14:16;9.85;;;3.80;;
79585;SDS011;69054;50.866;4.636;2023-07-13T04:16:42;10.30;;;3.22;;
79585;SDS011;69054;50.866;4.636;2023-07-13T04:19:08;6.28;;;3.30;;
79585;SDS011;69054;50.866;4.636;2023-07-13T04:21:35;8.85;;;3.03;;
79585;SDS011;69054;50.866;4.636;2023-07-13T04:24:01;10.35;;;3.10;;
79585;SDS011;69054;50.866;4.636;2023-07-13T04:26:27;12.43;;;4.60;;
79585;SDS011;69054;50.866;4.636;2023-07-13T04:28:53;9.32;;;3.20;;
79585;SDS011;69054;50.866;4.636;2023-07-13T04:31:19;8.13;;;3.10;;
79585;SDS011;69054;50.866;4.636;2023-07-13T04:33:45;9.35;;;3.38;;
79585;SDS011;69054;50.866;4.636;2023-07-13T04:36:10;6.38;;;2.95;;
79585;SDS011;69054;50.866;4.636;2023-07-13T04:38:35;8.32;;;3.28;;
79585;SDS011;69054;50.866;4.636;2023-07-13T04:41:02;12.82;;;3.67;;
79585;SDS011;69054;50.866;4.636;2023-07-13T04:43:30;9.10;;;3.58;;
79585;SDS011;69054;50.866;4.636;2023-07-13T04:45:56;7.50;;;3.35;;
79585;SDS011;69054;50.866;4.636;2023-07-13T04:48:22;8.02;;;2.92;;
79585;SDS011;69054;50.866;4.636;2023-07-13T04:50:54;9.50;;;3.10;;
79585;SDS011;69054;50.866;4.636;2023-07-13T04:53:21;11.50;;;4.05;;
79585;SDS011;69054;50.866;4.636;2023-07-13T04:55:46;11.93;;;4.15;;
79585;SDS011;69054;50.866;4.636;2023-07-13T04:58:12;7.20;;;3.00;;
79585;SDS011;69054;50.866;4.636;2023-07-13T05:00:38;5.95;;;3.15;;
79585;SDS011;69054;50.866;4.636;2023-07-13T05:03:03;9.27;;;3.47;;
79585;SDS011;69054;50.866;4.636;2023-07-13T05:05:29;9.68;;;3.15;;
79585;SDS011;69054;50.866;4.636;2023-07-13T05:07:54;10.63;;;3.90;;
79585;SDS011;69054;50.866;4.636;2023-07-13T05:10:20;9.98;;;3.42;;
79585;SDS011;69054;50.866;4.636;2023-07-13T05:12:45;13.88;;;3.50;;
79585;SDS011;69054;50.866;4.636;2023-07-13T05:15:11;9.05;;;4.05;;
79585;SDS011;69054;50.866;4.636;2023-07-13T05:17:37;12.20;;;3.70;;
79585;SDS011;69054;50.866;4.636;2023-07-13T05:20:04;9.10;;;3.35;;
79585;SDS011;69054;50.866;4.636;2023-07-13T05:22:30;9.23;;;2.97;;
79585;SDS011;69054;50.866;4.636;2023-07-13T05:24:56;12.38;;;4.18;;
79585;SDS011;69054;50.866;4.636;2023-07-13T05:27:21;12.00;;;3.90;;
79585;SDS011;69054;50.866;4.636;2023-07-13T05:29:47;7.30;;;3.47;;
79585;SDS011;69054;50.866;4.636;2023-07-13T05:32:12;9.30;;;3.65;;
79585;SDS011;69054;50.866;4.636;2023-07-13T05:34:37;9.77;;;4.32;;
79585;SDS011;69054;50.866;4.636;2023-07-13T05:37:03;8.73;;;3.42;;
79585;SDS011;69054;50.866;4.636;2023-07-13T05:39:28;6.82;;;2.83;;
79585;SDS011;69054;50.866;4.636;2023-07-13T05:41:54;12.50;;;4.03;;
79585;SDS011;69054;50.866;4.636;2023-07-13T05:44:19;9.70;;;3.70;;
79585;SDS011;69054;50.866;4.636;2023-07-13T05:46:45;8.68;;;3.28;;
79585;SDS011;69054;50.866;4.636;2023-07-13T05:49:11;8.38;;;3.80;;
79585;SDS011;69054;50.866;4.636;2023-07-13T05:51:36;10.32;;;3.72;;
79585;SDS011;69054;50.866;4.636;2023-07-13T05:54:02;7.97;;;3.60;;
79585;SDS011;69054;50.866;4.636;2023-07-13T05:56:28;8.68;;;3.63;;
79585;SDS011;69054;50.866;4.636;2023-07-13T05:58:53;13.10;;;3.33;;
79585;SDS011;69054;50.866;4.636;2023-07-13T06:01:18;16.50;;;3.75;;
79585;SDS011;69054;50.866;4.636;2023-07-13T06:03:45;11.00;;;3.70;;
79585;SDS011;69054;50.866;4.636;2023-07-13T06:06:11;9.45;;;3.38;;
79585;SDS011;69054;50.866;4.636;2023-07-13T06:08:37;11.07;;;4.68;;
79585;SDS011;69054;50.866;4.636;2023-07-13T06:13:33;10.25;;;4.07;;
79585;SDS011;69054;50.866;4.636;2023-07-13T06:15:58;12.15;;;4.15;;
79585;SDS011;69054;50.866;4.636;2023-07-13T06:18:24;5.97;;;3.22;;
79585;SDS011;69054;50.866;4.636;2023-07-13T06:20:50;10.40;;;3.72;;
79585;SDS011;69054;50.866;4.636;2023-07-13T06:23:15;9.30;;;3.95;;
79585;SDS011;69054;50.866;4.636;2023-07-13T06:25:40;8.88;;;3.92;;
79585;SDS011;69054;50.866;4.636;2023-07-13T06:28:05;6.80;;;3.45;;
79585;SDS011;69054;50.866;4.636;2023-07-13T06:30:31;8.38;;;3.63;;
79585;SDS011;69054;50.866;4.636;2023-07-13T06:32:57;6.13;;;3.15;;
79585;SDS011;69054;50.866;4.636;2023-07-13T06:35:22;9.57;;;3.25;;
79585;SDS011;69054;50.866;4.636;2023-07-13T06:37:47;9.80;;;3.60;;
79585;SDS011;69054;50.866;4.636;2023-07-13T06:40:13;9.50;;;3.90;;
79585;SDS011;69054;50.866;4.636;2023-07-13T06:42:38;7.78;;;3.55;;
79585;SDS011;69054;50.866;4.636;2023-07-13T06:45:04;8.07;;;3.40;;
79585;SDS011;69054;50.866;4.636;2023-07-13T06:47:30;11.38;;;3.65;;
79585;SDS011;69054;50.866;4.636;2023-07-13T06:49:55;14.93;;;4.20;;
79585;SDS011;69054;50.866;4.636;2023-07-13T06:52:21;9.60;;;3.75;;
79585;SDS011;69054;50.866;4.636;2023-07-13T06:54:46;10.57;;;3.67;;
79585;SDS011;69054;50.866;4.636;2023-07-13T06:57:12;7.25;;;3.55;;
79585;SDS011;69054;50.866;4.636;2023-07-13T06:59:37;6.57;;;3.40;;
79585;SDS011;69054;50.866;4.636;2023-07-13T07:02:02;8.93;;;3.75;;
79585;SDS011;69054;50.866;4.636;2023-07-13T07:04:28;8.95;;;3.28;;
79585;SDS011;69054;50.866;4.636;2023-07-13T07:06:54;6.60;;;3.85;;
79585;SDS011;69054;50.866;4.636;2023-07-13T07:09:19;9.35;;;3.60;;
79585;SDS011;69054;50.866;4.636;2023-07-13T07:11:45;11.20;;;3.95;;
79585;SDS011;69054;50.866;4.636;2023-07-13T07:14:10;9.20;;;4.00;;
79585;SDS011;69054;50.866;4.636;2023-07-13T07:16:36;6.63;;;3.33;;
79585;SDS011;69054;50.866;4.636;2023-07-13T07:19:01;5.35;;;3.20;;
79585;SDS011;69054;50.866;4.636;2023-07-13T07:21:27;6.82;;;3.83;;
79585;SDS011;69054;50.866;4.636;2023-07-13T07:23:52;6.18;;;3.17;;
79585;SDS011;69054;50.866;4.636;2023-07-13T07:26:18;9.35;;;3.97;;
79585;SDS011;69054;50.866;4.636;2023-07-13T07:28:44;6.78;;;3.70;;
79585;SDS011;69054;50.866;4.636;2023-07-13T07:31:09;12.35;;;3.63;;
79585;SDS011;69054;50.866;4.636;2023-07-13T07:33:35;6.82;;;3.35;;
79585;SDS011;69054;50.866;4.636;2023-07-13T07:36:01;9.00;;;3.15;;
79585;SDS011;69054;50.866;4.636;2023-07-13T07:38:26;7.25;;;3.10;;
79585;SDS011;69054;50.866;4.636;2023-07-13T07:40:52;9.77;;;3.60;;
79585;SDS011;69054;50.866;4.636;2023-07-13T07:43:17;9.02;;;3.55;;
79585;SDS011;69054;50.866;4.636;2023-07-13T07:45:43;8.73;;;3.33;;
79585;SDS011;69054;50.866;4.636;2023-07-13T07:48:10;9.02;;;3.60;;
79585;SDS011;69054;50.866;4.636;2023-07-13T07:50:35;6.15;;;3.20;;
79585;SDS011;69054;50.866;4.636;2023-07-13T07:53:02;7.90;;;3.92;;
79585;SDS011;69054;50.866;4.636;2023-07-13T07:55:28;8.00;;;4.30;;
79585;SDS011;69054;50.866;4.636;2023-07-13T07:57:54;6.43;;;3.08;;
79585;SDS011;69054;50.866;4.636;2023-07-13T08:00:21;6.20;;;3.13;;
79585;SDS011;69054;50.866;4.636;2023-07-13T08:02:47;8.65;;;3.08;;
79585;SDS011;69054;50.866;4.636;2023-07-13T08:05:13;6.35;;;3.05;;
79585;SDS011;69054;50.866;4.636;2023-07-13T08:07:38;8.95;;;3.45;;
79585;SDS011;69054;50.866;4.636;2023-07-13T08:10:05;8.60;;;3.13;;
79585;SDS011;69054;50.866;4.636;2023-07-13T08:12:35;7.22;;;3.00;;
79585;SDS011;69054;50.866;4.636;2023-07-13T08:15:01;8.07;;;3.58;;
79585;SDS011;69054;50.866;4.636;2023-07-13T08:17:27;6.78;;;2.90;;
79585;SDS011;69054;50.866;4.636;2023-07-13T08:19:53;7.93;;;3.20;;
79585;SDS011;69054;50.866;4.636;2023-07-13T08:22:18;6.05;;;3.35;;
79585;SDS011;69054;50.866;4.636;2023-07-13T08:24:44;10.13;;;3.88;;
79585;SDS011;69054;50.866;4.636;2023-07-13T08:27:12;7.40;;;3.10;;
79585;SDS011;69054;50.866;4.636;2023-07-13T08:29:38;6.07;;;3.00;;
79585;SDS011;69054;50.866;4.636;2023-07-13T08:32:04;8.07;;;2.97;;
79585;SDS011;69054;50.866;4.636;2023-07-13T08:34:34;7.35;;;3.05;;
79585;SDS011;69054;50.866;4.636;2023-07-13T08:36:59;12.40;;;3.55;;
79585;SDS011;69054;50.866;4.636;2023-07-13T08:39:25;5.57;;;2.72;;
79585;SDS011;69054;50.866;4.636;2023-07-13T08:41:54;6.63;;;2.97;;
79585;SDS011;69054;50.866;4.636;2023-07-13T08:44:27;4.05;;;2.45;;
79585;SDS011;69054;50.866;4.636;2023-07-13T08:47:05;6.25;;;2.55;;
79585;SDS011;69054;50.866;4.636;2023-07-13T08:49:32;7.20;;;3.40;;
79585;SDS011;69054;50.866;4.636;2023-07-13T08:52:04;5.53;;;2.50;;
79585;SDS011;69054;50.866;4.636;2023-07-13T08:54:48;6.78;;;2.92;;
79585;SDS011;69054;50.866;4.636;2023-07-13T08:57:20;6.75;;;2.60;;
79585;SDS011;69054;50.866;4.636;2023-07-13T08:59:49;8.35;;;3.13;;
79585;SDS011;69054;50.866;4.636;2023-07-13T09:04:56;5.85;;;3.10;;
79585;SDS011;69054;50.866;4.636;2023-07-13T09:10:18;3.67;;;2.53;;
79585;SDS011;69054;50.866;4.636;2023-07-13T09:13:06;7.13;;;2.90;;
79585;SDS011;69054;50.866;4.636;2023-07-13T09:15:41;6.85;;;2.70;;
79585;SDS011;69054;50.866;4.636;2023-07-13T09:18:29;8.32;;;3.10;;
79585;SDS011;69054;50.866;4.636;2023-07-13T09:23:36;6.53;;;2.83;;
79585;SDS011;69054;50.866;4.636;2023-07-13T09:26:13;4.50;;;2.35;;
79585;SDS011;69054;50.866;4.636;2023-07-13T09:28:46;5.95;;;2.80;;
79585;SDS011;69054;50.866;4.636;2023-07-13T09:33:42;7.07;;;2.85;;
79585;SDS011;69054;50.866;4.636;2023-07-13T09:36:17;5.30;;;2.63;;
79585;SDS011;69054;50.866;4.636;2023-07-13T09:39:35;5.38;;;2.80;;
79585;SDS011;69054;50.866;4.636;2023-07-13T09:44:28;6.45;;;2.30;;
79585;SDS011;69054;50.866;4.636;2023-07-13T09:47:32;5.00;;;2.40;;
79585;SDS011;69054;50.866;4.636;2023-07-13T09:50:04;6.65;;;2.35;;
79585;SDS011;69054;50.866;4.636;2023-07-13T09:52:44;8.27;;;2.70;;
79585;SDS011;69054;50.866;4.636;2023-07-13T09:55:23;4.90;;;2.40;;
79585;SDS011;69054;50.866;4.636;2023-07-13T09:57:55;4.45;;;2.50;;
79585;SDS011;69054;50.866;4.636;2023-07-13T10:00:25;4.07;;;2.30;;
79585;SDS011;69054;50.866;4.636;2023-07-13T10:03:03;3.95;;;2.40;;
79585;SDS011;69054;50.866;4.636;2023-07-13T10:05:46;6.47;;;3.03;;
79585;SDS011;69054;50.866;4.636;2023-07-13T10:08:25;5.47;;;2.63;;
79585;SDS011;69054;50.866;4.636;2023-07-13T10:11:08;3.63;;;2.20;;
79585;SDS011;69054;50.866;4.636;2023-07-13T10:13:43;7.05;;;3.53;;
79585;SDS011;69054;50.866;4.636;2023-07-13T10:16:13;5.65;;;2.80;;
79585;SDS011;69054;50.866;4.636;2023-07-13T10:18:44;5.43;;;2.15;;
79585;SDS011;69054;50.866;4.636;2023-07-13T10:21:14;6.68;;;2.50;;
79585;SDS011;69054;50.866;4.636;2023-07-13T10:23:42;3.78;;;2.20;;
79585;SDS011;69054;50.866;4.636;2023-07-13T10:26:13;4.28;;;2.60;;
79585;SDS011;69054;50.866;4.636;2023-07-13T10:28:43;5.03;;;2.33;;
79585;SDS011;69054;50.866;4.636;2023-07-13T10:31:13;6.32;;;2.72;;
79585;SDS011;69054;50.866;4.636;2023-07-13T10:33:40;7.70;;;3.13;;
79585;SDS011;69054;50.866;4.636;2023-07-13T10:36:12;4.88;;;2.50;;
79585;SDS011;69054;50.866;4.636;2023-07-13T10:38:54;4.45;;;2.53;;
79585;SDS011;69054;50.866;4.636;2023-07-13T10:41:22;4.53;;;2.58;;
79585;SDS011;69054;50.866;4.636;2023-07-13T10:43:51;4.47;;;2.30;;
79585;SDS011;69054;50.866;4.636;2023-07-13T10:46:19;4.40;;;2.17;;
79585;SDS011;69054;50.866;4.636;2023-07-13T10:48:48;7.85;;;2.63;;
79585;SDS011;69054;50.866;4.636;2023-07-13T10:51:17;3.67;;;2.30;;
79585;SDS011;69054;50.866;4.636;2023-07-13T10:53:46;4.95;;;2.40;;
79585;SDS011;69054;50.866;4.636;2023-07-13T11:04:39;4.25;;;2.15;;
79585;SDS011;69054;50.866;4.636;2023-07-13T11:07:26;3.80;;;2.20;;
79585;SDS011;69054;50.866;4.636;2023-07-13T11:09:55;4.88;;;2.10;;
79585;SDS011;69054;50.866;4.636;2023-07-13T11:22:41;3.78;;;2.38;;
79585;SDS011;69054;50.866;4.636;2023-07-13T11:27:49;4.25;;;2.33;;
79585;SDS011;69054;50.866;4.636;2023-07-13T11:35:45;4.00;;;2.45;;
79585;SDS011;69054;50.866;4.636;2023-07-13T11:38:22;5.60;;;2.20;;
79585;SDS011;69054;50.866;4.636;2023-07-13T11:40:53;4.18;;;2.10;;
79585;SDS011;69054;50.866;4.636;2023-07-13T11:43:20;5.15;;;2.33;;
79585;SDS011;69054;50.866;4.636;2023-07-13T11:45:48;4.40;;;2.20;;
79585;SDS011;69054;50.866;4.636;2023-07-13T11:48:18;3.30;;;1.90;;
79585;SDS011;69054;50.866;4.636;2023-07-13T11:50:51;4.25;;;2.05;;
79585;SDS011;69054;50.866;4.636;2023-07-13T11:53:20;3.92;;;2.30;;
79585;SDS011;69054;50.866;4.636;2023-07-13T11:55:46;4.38;;;2.30;;
79585;SDS011;69054;50.866;4.636;2023-07-13T11:58:14;4.47;;;2.10;;
79585;SDS011;69054;50.866;4.636;2023-07-13T12:00:44;4.28;;;2.10;;
79585;SDS011;69054;50.866;4.636;2023-07-13T12:03:10;3.38;;;1.77;;
79585;SDS011;69054;50.866;4.636;2023-07-13T12:05:36;4.88;;;1.92;;
79585;SDS011;69054;50.866;4.636;2023-07-13T12:08:08;3.45;;;2.10;;
79585;SDS011;69054;50.866;4.636;2023-07-13T12:10:36;3.45;;;2.22;;
79585;SDS011;69054;50.866;4.636;2023-07-13T12:13:03;3.40;;;2.33;;
79585;SDS011;69054;50.866;4.636;2023-07-13T12:15:45;3.83;;;2.28;;
79585;SDS011;69054;50.866;4.636;2023-07-13T12:18:14;6.20;;;2.47;;
79585;SDS011;69054;50.866;4.636;2023-07-13T12:20:40;5.28;;;2.30;;
79585;SDS011;69054;50.866;4.636;2023-07-13T12:23:07;3.15;;;2.38;;
79585;SDS011;69054;50.866;4.636;2023-07-13T12:25:58;4.63;;;2.28;;
79585;SDS011;69054;50.866;4.636;2023-07-13T12:28:37;5.22;;;2.35;;
79585;SDS011;69054;50.866;4.636;2023-07-13T12:31:04;5.75;;;2.80;;
79585;SDS011;69054;50.866;4.636;2023-07-13T12:33:44;4.70;;;2.38;;
79585;SDS011;69054;50.866;4.636;2023-07-13T12:36:09;5.78;;;2.88;;
79585;SDS011;69054;50.866;4.636;2023-07-13T12:38:37;5.80;;;2.90;;
79585;SDS011;69054;50.866;4.636;2023-07-13T12:41:02;6.00;;;2.40;;
79585;SDS011;69054;50.866;4.636;2023-07-13T12:43:28;4.60;;;2.40;;
79585;SDS011;69054;50.866;4.636;2023-07-13T12:46:03;8.18;;;2.45;;
79585;SDS011;69054;50.866;4.636;2023-07-13T12:48:40;5.03;;;2.47;;
79585;SDS011;69054;50.866;4.636;2023-07-13T12:51:08;4.85;;;2.47;;
79585;SDS011;69054;50.866;4.636;2023-07-13T12:53:39;5.45;;;2.72;;
79585;SDS011;69054;50.866;4.636;2023-07-13T12:56:08;4.85;;;2.50;;
79585;SDS011;69054;50.866;4.636;2023-07-13T12:58:43;4.20;;;2.28;;
79585;SDS011;69054;50.866;4.636;2023-07-13T13:01:11;4.07;;;2.50;;
79585;SDS011;69054;50.866;4.636;2023-07-13T13:03:39;4.03;;;2.50;;
79585;SDS011;69054;50.866;4.636;2023-07-13T13:08:41;5.60;;;2.47;;
79585;SDS011;69054;50.866;4.636;2023-07-13T13:11:08;4.45;;;2.60;;
79585;SDS011;69054;50.866;4.636;2023-07-13T13:13:34;6.78;;;2.63;;
79585;SDS011;69054;50.866;4.636;2023-07-13T13:16:11;4.32;;;2.83;;
79585;SDS011;69054;50.866;4.636;2023-07-13T13:18:42;3.45;;;2.40;;
79585;SDS011;69054;50.866;4.636;2023-07-13T13:21:08;3.85;;;2.50;;
79585;SDS011;69054;50.866;4.636;2023-07-13T13:23:35;5.00;;;2.83;;
79585;SDS011;69054;50.866;4.636;2023-07-13T13:26:00;9.57;;;3.40;;
79585;SDS011;69054;50.866;4.636;2023-07-13T13:28:26;5.13;;;3.00;;
79585;SDS011;69054;50.866;4.636;2023-07-13T13:30:52;4.90;;;3.42;;
79585;SDS011;69054;50.866;4.636;2023-07-13T13:33:18;6.35;;;3.13;;
79585;SDS011;69054;50.866;4.636;2023-07-13T13:35:45;6.07;;;2.83;;
79585;SDS011;69054;50.866;4.636;2023-07-13T13:38:12;7.15;;;3.20;;
79585;SDS011;69054;50.866;4.636;2023-07-13T13:40:39;5.32;;;2.85;;
79585;SDS011;69054;50.866;4.636;2023-07-13T13:43:16;4.20;;;2.75;;
79585;SDS011;69054;50.866;4.636;2023-07-13T13:45:43;6.78;;;4.15;;
79585;SDS011;69054;50.866;4.636;2023-07-13T13:48:17;5.10;;;2.63;;
79585;SDS011;69054;50.866;4.636;2023-07-13T13:50:44;4.18;;;2.30;;
79585;SDS011;69054;50.866;4.636;2023-07-13T13:53:10;5.05;;;2.40;;
79585;SDS011;69054;50.866;4.636;2023-07-13T13:55:38;3.78;;;2.40;;
79585;SDS011;69054;50.866;4.636;2023-07-13T13:58:04;4.07;;;2.45;;
79585;SDS011;69054;50.866;4.636;2023-07-13T14:00:29;4.00;;;2.30;;
79585;SDS011;69054;50.866;4.636;2023-07-13T14:02:55;7.80;;;2.60;;
79585;SDS011;69054;50.866;4.636;2023-07-13T14:05:23;5.40;;;2.70;;
79585;SDS011;69054;50.866;4.636;2023-07-13T14:07:51;7.38;;;2.72;;
79585;SDS011;69054;50.866;4.636;2023-07-13T14:10:19;5.38;;;2.55;;
79585;SDS011;69054;50.866;4.636;2023-07-13T14:12:45;7.22;;;2.60;;
79585;SDS011;69054;50.866;4.636;2023-07-13T14:15:24;3.92;;;2.38;;
79585;SDS011;69054;50.866;4.636;2023-07-13T14:17:52;3.50;;;2.28;;
79585;SDS011;69054;50.866;4.636;2023-07-13T14:20:19;3.03;;;2.50;;
79585;SDS011;69054;50.866;4.636;2023-07-13T14:22:47;4.78;;;2.42;;
79585;SDS011;69054;50.866;4.636;2023-07-13T14:25:14;4.63;;;2.35;;
79585;SDS011;69054;50.866;4.636;2023-07-13T14:27:40;4.18;;;2.17;;
79585;SDS011;69054;50.866;4.636;2023-07-13T14:30:14;4.80;;;2.60;;
79585;SDS011;69054;50.866;4.636;2023-07-13T14:32:42;4.10;;;2.28;;
79585;SDS011;69054;50.866;4.636;2023-07-13T14:35:14;4.30;;;2.47;;
79585;SDS011;69054;50.866;4.636;2023-07-13T14:37:41;4.57;;;2.22;;
79585;SDS011;69054;50.866;4.636;2023-07-13T14:40:16;4.07;;;2.47;;
79585;SDS011;69054;50.866;4.636;2023-07-13T14:42:49;3.75;;;1.98;;
79585;SDS011;69054;50.866;4.636;2023-07-13T14:45:15;5.65;;;2.60;;
79585;SDS011;69054;50.866;4.636;2023-07-13T14:47:43;4.60;;;2.50;;
79585;SDS011;69054;50.866;4.636;2023-07-13T14:50:12;3.85;;;2.30;;
79585;SDS011;69054;50.866;4.636;2023-07-13T14:52:41;5.93;;;2.38;;
79585;SDS011;69054;50.866;4.636;2023-07-13T14:55:11;4.15;;;2.78;;
79585;SDS011;69054;50.866;4.636;2023-07-13T14:57:38;4.13;;;2.85;;
79585;SDS011;69054;50.866;4.636;2023-07-13T15:00:04;5.93;;;2.55;;
79585;SDS011;69054;50.866;4.636;2023-07-13T15:02:33;4.70;;;2.40;;
79585;SDS011;69054;50.866;4.636;2023-07-13T15:05:05;3.38;;;2.30;;
79585;SDS011;69054;50.866;4.636;2023-07-13T15:07:40;3.92;;;2.10;;
79585;SDS011;69054;50.866;4.636;2023-07-13T15:10:16;4.95;;;2.60;;
79585;SDS011;69054;50.866;4.636;2023-07-13T15:12:47;4.10;;;2.50;;
79585;SDS011;69054;50.866;4.636;2023-07-13T15:15:13;4.13;;;2.33;;
79585;SDS011;69054;50.866;4.636;2023-07-13T15:17:43;5.22;;;2.70;;
79585;SDS011;69054;50.866;4.636;2023-07-13T15:22:44;3.53;;;2.15;;
79585;SDS011;69054;50.866;4.636;2023-07-13T15:25:13;3.47;;;2.08;;
79585;SDS011;69054;50.866;4.636;2023-07-13T15:27:42;4.00;;;2.15;;
79585;SDS011;69054;50.866;4.636;2023-07-13T15:30:07;3.75;;;2.35;;
79585;SDS011;69054;50.866;4.636;2023-07-13T15:32:34;4.65;;;2.60;;
79585;SDS011;69054;50.866;4.636;2023-07-13T15:34:59;4.63;;;2.25;;
79585;SDS011;69054;50.866;4.636;2023-07-13T15:37:24;3.97;;;2.20;;